Morgantown Municipal Walter L. Bill Hart Field Morgantown US
ICAO: KMGW
IATA: MGW
Category: Medium
Scheduled Services: Yes

Elevation: 1248 ft
TransAlt. 18000 ft.

Airport Communications:
CLARKSBURG APP/DEP:121.15
ASOS:120.675
CTAF:125.1
GND:121.7
ELKINS RDO:122.6
TWR:125.1
UNICOM:122.95

KMGW Zoom In..

Runways:

(A) RW 18 length 5199 ft width 150 ft
ILS 108.50 / hdg 181

(B) RW 36 length 5199 ft width 150 ft
---- / hdg 1

Location; KMGW
Day. 17 / Time. 07.40 Zulu
* Altimeter: 29.94
* Temperature: 21° c. 69.8°f.
* Wind from: 130° Speed 05 kn.
Dewpoint: 21° c.
Visibility: 9 Statute Miles.
Clouds: Few 4300 ft.
Clouds: Overcast 8000 ft.

KMGW 170740Z AUTO 13005KT 9SM FEW043 OVC080 21/21 A2994 RMK AO2 RAE0654B30E40 P0000 T02110211


Wind From 130°
Speed 05 kn.

 
 
jpsmedia.com for Web Design worldairports.se 2018   terms of use